createdAt,value
2023-01-20T00:01:16.366Z,82.35
2023-01-20T00:06:20.891Z,82.26
2023-01-20T00:11:23.800Z,82.78
2023-01-20T00:16:27.298Z,82.68
2023-01-20T00:21:31.449Z,82.69
2023-01-20T00:26:34.170Z,82.66
2023-01-20T00:31:37.265Z,83.42
2023-01-20T00:36:41.396Z,82.93
2023-01-20T00:41:44.206Z,83.85
2023-01-20T00:46:47.169Z,83.30
2023-01-20T00:51:51.281Z,83.10
2023-01-20T00:56:54.017Z,83.37
2023-01-20T01:01:56.851Z,83.37
2023-01-20T01:07:00.995Z,83.22
2023-01-20T01:12:03.794Z,83.00
2023-01-20T01:17:06.711Z,84.02
2023-01-20T01:22:10.802Z,83.85
2023-01-20T01:27:13.668Z,83.58
2023-01-20T01:32:16.438Z,83.62
2023-01-20T01:37:20.556Z,83.26
2023-01-20T01:42:25.289Z,83.26
2023-01-20T01:47:28.032Z,84.10
2023-01-20T01:52:32.674Z,84.33
2023-01-20T01:57:35.886Z,84.07
2023-01-20T02:02:38.711Z,83.74
2023-01-20T02:07:43.896Z,84.04
2023-01-20T02:12:49.544Z,83.37
2023-01-20T02:18:03.516Z,83.41
2023-01-20T02:23:12.573Z,84.08
2023-01-20T02:28:45.852Z,84.08
2023-01-20T02:33:53.513Z,83.78
2023-01-20T02:39:00.864Z,83.91
2023-01-20T02:44:09.807Z,83.90
2023-01-20T02:49:16.177Z,83.88
2023-01-20T02:54:19.836Z,83.65
2023-01-20T02:59:25.872Z,83.44
2023-01-20T03:04:35.831Z,83.86
2023-01-20T03:09:40.217Z,83.73
2023-01-20T03:14:43.118Z,83.49
2023-01-20T03:19:47.358Z,83.52
2023-01-20T03:24:50.306Z,83.71
2023-01-20T03:29:53.082Z,84.05
2023-01-20T03:34:57.620Z,83.90
2023-01-20T03:40:01.708Z,84.20
2023-01-20T03:45:07.868Z,84.56
2023-01-20T03:50:19.131Z,84.10
2023-01-20T03:55:24.640Z,84.04
2023-01-20T04:00:29.741Z,83.60
2023-01-20T04:05:34.944Z,83.46
2023-01-20T04:10:40.227Z,83.38
2023-01-20T04:15:44.940Z,84.15
2023-01-20T04:20:51.537Z,83.82
2023-01-20T04:25:54.490Z,83.89
2023-01-20T04:30:57.552Z,83.88
2023-01-20T04:36:01.777Z,84.37
2023-01-20T04:41:04.658Z,84.01
2023-01-20T04:46:07.462Z,83.94
2023-01-20T04:51:11.891Z,83.49
2023-01-20T04:56:15.795Z,83.51
2023-01-20T05:01:18.623Z,83.55
2023-01-20T05:06:22.705Z,84.06
2023-01-20T05:11:25.531Z,83.82
2023-01-20T05:16:31.915Z,83.77
2023-01-20T05:21:36.072Z,83.67
2023-01-20T05:26:38.902Z,84.63
2023-01-20T05:31:43.304Z,83.96
2023-01-20T05:36:47.660Z,83.93
2023-01-20T05:41:50.660Z,84.42
2023-01-20T05:46:53.490Z,84.40
2023-01-20T05:51:57.589Z,84.16
2023-01-20T05:57:00.530Z,84.67
2023-01-20T06:02:03.373Z,84.33
2023-01-20T06:07:07.464Z,84.42
2023-01-20T06:12:10.275Z,84.75
2023-01-20T06:17:13.115Z,84.32
2023-01-20T06:22:19.572Z,84.31
2023-01-20T06:27:22.308Z,84.19
2023-01-20T06:32:25.156Z,83.72
2023-01-20T06:37:29.271Z,84.57
2023-01-20T06:42:32.277Z,83.90
2023-01-20T06:47:35.056Z,84.72
2023-01-20T06:52:39.115Z,84.41
2023-01-20T06:57:42.027Z,84.35
2023-01-20T07:02:44.850Z,85.03
2023-01-20T07:07:49.060Z,84.03
2023-01-20T07:12:51.772Z,83.92
2023-01-20T07:17:54.529Z,83.71
2023-01-20T07:23:00.491Z,83.96
2023-01-20T07:28:03.230Z,84.37
2023-01-20T07:33:06.033Z,83.58
2023-01-20T07:38:10.357Z,83.97
2023-01-20T07:43:13.256Z,83.74
2023-01-20T07:48:15.975Z,83.49
2023-01-20T07:53:20.161Z,83.41
2023-01-20T07:58:22.968Z,83.38
2023-01-20T08:03:27.483Z,82.82
2023-01-20T08:08:31.950Z,83.07
2023-01-20T08:13:35.239Z,83.13
2023-01-20T08:18:38.398Z,83.26
2023-01-20T08:23:42.456Z,82.12
2023-01-20T08:28:45.241Z,81.93
2023-01-20T08:33:48.304Z,81.53
2023-01-20T08:38:52.447Z,82.11
2023-01-20T08:43:55.782Z,82.62
2023-01-20T08:48:58.877Z,83.02
2023-01-20T08:54:03.340Z,83.23
2023-01-20T08:59:06.282Z,83.23
2023-01-20T09:04:09.054Z,82.96
2023-01-20T09:09:13.724Z,82.13
2023-01-20T09:14:16.645Z,82.14
2023-01-20T09:19:19.792Z,82.33
2023-01-20T09:24:24.274Z,82.45
2023-01-20T09:29:27.064Z,82.01
2023-01-20T09:34:30.251Z,82.08
2023-01-20T09:39:52.013Z,81.64
2023-01-20T09:44:57.629Z,81.32
2023-01-20T09:50:41.399Z,80.70
2023-01-20T09:55:50.275Z,81.03
2023-01-20T10:00:55.299Z,80.63
2023-01-20T10:06:00.409Z,80.85
2023-01-20T10:11:08.225Z,79.91
2023-01-20T10:16:13.138Z,80.62
2023-01-20T10:21:20.629Z,80.29
2023-01-20T10:26:29.627Z,80.40
2023-01-20T10:31:36.092Z,79.91
2023-01-20T10:36:41.359Z,79.97
2023-01-20T10:41:48.369Z,79.22
2023-01-20T10:46:58.919Z,79.44
2023-01-20T10:52:12.628Z,79.01
2023-01-20T10:57:17.113Z,79.38
2023-01-20T11:02:22.240Z,79.17
2023-01-20T11:07:25.048Z,79.80
2023-01-20T11:12:31.538Z,79.33
2023-01-20T11:17:34.274Z,79.17
2023-01-20T11:22:38.715Z,79.22
2023-01-20T11:27:45.821Z,79.38
2023-01-20T11:33:08.611Z,79.17
2023-01-20T11:38:25.626Z,78.83
2023-01-20T11:43:31.297Z,79.10
2023-01-20T11:48:34.226Z,79.19
2023-01-20T11:53:37.016Z,78.84
2023-01-20T11:58:52.530Z,78.31
2023-01-20T12:04:21.365Z,77.89
2023-01-20T12:09:27.965Z,78.28
2023-01-20T12:14:33.520Z,78.68
2023-01-20T12:19:42.054Z,79.04
2023-01-20T12:25:10.827Z,78.13
2023-01-20T12:30:34.809Z,78.39
2023-01-20T12:35:42.992Z,78.34
2023-01-20T12:40:49.082Z,77.89
2023-01-20T12:46:05.128Z,78.21
2023-01-20T12:51:15.505Z,78.17
2023-01-20T12:56:23.789Z,77.80
2023-01-20T13:01:42.638Z,78.15
2023-01-20T13:06:55.464Z,77.51
2023-01-20T13:12:06.573Z,78.07
2023-01-20T13:17:17.362Z,77.81
2023-01-20T13:22:21.809Z,77.95
2023-01-20T13:27:27.689Z,77.98
2023-01-20T13:32:36.560Z,78.18
2023-01-20T13:37:40.027Z,78.11
2023-01-20T13:42:53.320Z,77.59
2023-01-20T13:48:00.453Z,77.87
2023-01-20T13:53:22.471Z,77.68
2023-01-20T13:58:43.847Z,77.84
2023-01-20T14:04:02.673Z,77.00
2023-01-20T14:09:12.865Z,77.52
2023-01-20T14:14:20.252Z,77.94
2023-01-20T14:19:29.803Z,77.99
2023-01-20T14:24:34.473Z,77.51
2023-01-20T14:29:37.211Z,77.55
2023-01-20T14:34:41.462Z,77.26
2023-01-20T14:39:49.268Z,77.25
2023-01-20T14:44:53.499Z,77.12
2023-01-20T14:49:57.627Z,77.24
2023-01-20T14:55:00.339Z,77.79
2023-01-20T15:00:21.610Z,77.25
2023-01-20T15:05:28.858Z,77.52
2023-01-20T15:10:31.744Z,77.23
2023-01-20T15:15:34.769Z,77.72
2023-01-20T15:20:40.456Z,78.04
2023-01-20T15:25:43.450Z,77.43
2023-01-20T15:30:46.234Z,77.57
2023-01-20T15:35:54.691Z,77.57
2023-01-20T15:40:57.557Z,78.08
2023-01-20T15:46:00.397Z,78.50
2023-01-20T15:51:07.045Z,78.36
2023-01-20T15:56:15.527Z,78.63
2023-01-20T16:01:20.410Z,78.53
2023-01-20T16:06:28.999Z,78.72
2023-01-20T16:11:32.035Z,79.25
2023-01-20T16:16:35.118Z,79.39
2023-01-20T16:21:39.462Z,79.76
2023-01-20T16:26:44.258Z,80.07
2023-01-20T16:31:47.255Z,79.54
2023-01-20T16:36:51.793Z,80.03
2023-01-20T16:41:54.674Z,80.27
2023-01-20T16:46:58.567Z,81.02
2023-01-20T16:52:03.270Z,80.54
2023-01-20T16:57:06.355Z,80.91
2023-01-20T17:02:10.907Z,80.84
2023-01-20T17:07:15.161Z,81.23
2023-01-20T17:12:18.160Z,80.50
2023-01-20T17:17:22.438Z,80.31
2023-01-20T17:22:26.625Z,79.92
2023-01-20T17:27:29.344Z,79.96
2023-01-20T17:32:32.067Z,79.76
2023-01-20T17:37:36.084Z,80.00
2023-01-20T17:42:39.315Z,80.32
2023-01-20T17:47:42.106Z,80.12
2023-01-20T17:52:46.237Z,80.40
2023-01-20T17:57:51.111Z,80.45
2023-01-20T18:02:56.573Z,80.10
2023-01-20T18:08:00.709Z,80.61
2023-01-20T18:13:03.662Z,81.26
2023-01-20T18:18:06.461Z,80.55
2023-01-20T18:23:10.586Z,79.62
2023-01-20T18:28:13.545Z,80.20
2023-01-20T18:33:16.280Z,80.66
2023-01-20T18:38:20.515Z,80.74
2023-01-20T18:43:23.220Z,80.72
2023-01-20T18:48:26.502Z,80.94
2023-01-20T18:53:31.651Z,80.90
2023-01-20T18:58:34.772Z,80.56
2023-01-20T19:03:38.454Z,80.34
2023-01-20T19:08:43.642Z,80.17
2023-01-20T19:13:48.623Z,79.96
2023-01-20T19:18:52.812Z,79.63
2023-01-20T19:23:59.757Z,79.56
2023-01-20T19:29:06.257Z,79.96
2023-01-20T19:34:09.899Z,81.07
2023-01-20T19:39:14.146Z,81.55
2023-01-20T19:44:16.910Z,81.11
2023-01-20T19:49:19.814Z,81.38
2023-01-20T19:54:24.442Z,81.55
2023-01-20T19:59:27.289Z,81.26
2023-01-20T20:04:30.158Z,81.71
2023-01-20T20:09:35.201Z,81.74
2023-01-20T20:14:38.199Z,81.54
2023-01-20T20:19:41.278Z,81.28
2023-01-20T20:24:46.878Z,80.63
2023-01-20T20:29:49.597Z,80.70
2023-01-20T20:34:52.322Z,79.94
2023-01-20T20:39:56.458Z,80.62
2023-01-20T20:44:59.288Z,81.46
2023-01-20T20:50:02.155Z,80.75
2023-01-20T20:55:07.394Z,80.93
2023-01-20T21:00:11.450Z,81.32
2023-01-20T21:05:14.508Z,81.00
2023-01-20T21:10:21.051Z,81.23
2023-01-20T21:15:23.977Z,81.48
2023-01-20T21:20:26.766Z,80.87
2023-01-20T21:25:32.801Z,80.72
2023-01-20T21:30:35.861Z,80.31
2023-01-20T21:35:39.186Z,81.50
2023-01-20T21:40:59.584Z,80.78
2023-01-20T21:46:02.388Z,81.17
2023-01-20T21:51:23.053Z,81.13
2023-01-20T21:56:27.241Z,81.38
2023-01-20T22:01:30.043Z,81.40
2023-01-20T22:06:32.777Z,81.59
2023-01-20T22:11:37.005Z,81.12
2023-01-20T22:16:39.825Z,81.73
2023-01-20T22:21:42.743Z,81.43
2023-01-20T22:26:48.554Z,81.87
2023-01-20T22:31:52.796Z,82.25
2023-01-20T22:36:56.584Z,81.89
2023-01-20T22:42:00.665Z,81.69
2023-01-20T22:47:05.739Z,80.95
2023-01-20T22:52:08.436Z,80.03
2023-01-20T22:57:13.126Z,80.24
2023-01-20T23:02:16.093Z,80.09
2023-01-20T23:07:18.973Z,79.83
2023-01-20T23:12:23.307Z,79.78
2023-01-20T23:17:26.481Z,80.35
2023-01-20T23:22:29.934Z,79.91
2023-01-20T23:27:34.015Z,80.33
2023-01-20T23:32:36.818Z,80.19
2023-01-20T23:37:39.507Z,80.22
2023-01-20T23:42:43.829Z,80.59
2023-01-20T23:47:46.596Z,80.88
2023-01-20T23:52:49.349Z,81.17
2023-01-20T23:57:53.767Z,80.65
